sensor_id;sensor_type;location;lat;lon;timestamp;temperature;humidity
37974;DHT22;23796;51.458;7.000;2023-02-01T00:00:14;6.40;99.90
37974;DHT22;23796;51.458;7.000;2023-02-01T00:02:40;6.40;99.90
37974;DHT22;23796;51.458;7.000;2023-02-01T00:05:11;6.30;99.90
37974;DHT22;23796;51.458;7.000;2023-02-01T00:07:37;6.30;99.90
37974;DHT22;23796;51.458;7.000;2023-02-01T00:10:05;6.20;99.90
37974;DHT22;23796;51.458;7.000;2023-02-01T00:12:31;6.20;99.90
37974;DHT22;23796;51.458;7.000;2023-02-01T00:14:56;6.30;99.90
37974;DHT22;23796;51.458;7.000;2023-02-01T00:17:24;6.30;99.90
37974;DHT22;23796;51.458;7.000;2023-02-01T00:19:50;6.30;99.90
37974;DHT22;23796;51.458;7.000;2023-02-01T00:22:16;6.30;99.90
37974;DHT22;23796;51.458;7.000;2023-02-01T00:24:46;6.40;99.90
37974;DHT22;23796;51.458;7.000;2023-02-01T00:27:14;6.40;99.90
37974;DHT22;23796;51.458;7.000;2023-02-01T00:29:48;6.40;99.90
37974;DHT22;23796;51.458;7.000;2023-02-01T00:32:16;6.40;99.90
37974;DHT22;23796;51.458;7.000;2023-02-01T00:34:43;6.50;99.90
37974;DHT22;23796;51.458;7.000;2023-02-01T00:37:09;6.50;99.90
37974;DHT22;23796;51.458;7.000;2023-02-01T00:39:35;6.50;99.90
37974;DHT22;23796;51.458;7.000;2023-02-01T00:42:00;6.50;99.90
37974;DHT22;23796;51.458;7.000;2023-02-01T00:44:27;6.60;99.90
37974;DHT22;23796;51.458;7.000;2023-02-01T00:46:53;6.60;99.90
37974;DHT22;23796;51.458;7.000;2023-02-01T00:49:23;6.60;99.90
37974;DHT22;23796;51.458;7.000;2023-02-01T00:51:51;6.60;99.90
37974;DHT22;23796;51.458;7.000;2023-02-01T00:54:16;6.60;99.90
37974;DHT22;23796;51.458;7.000;2023-02-01T00:56:42;6.60;99.90
37974;DHT22;23796;51.458;7.000;2023-02-01T00:59:11;6.70;99.90
37974;DHT22;23796;51.458;7.000;2023-02-01T01:01:36;6.60;99.90
37974;DHT22;23796;51.458;7.000;2023-02-01T01:04:02;6.60;99.90
37974;DHT22;23796;51.458;7.000;2023-02-01T01:06:31;6.70;99.90
37974;DHT22;23796;51.458;7.000;2023-02-01T01:09:00;6.70;99.90
37974;DHT22;23796;51.458;7.000;2023-02-01T01:11:28;6.70;99.90
37974;DHT22;23796;51.458;7.000;2023-02-01T01:13:56;6.70;99.90
37974;DHT22;23796;51.458;7.000;2023-02-01T01:16:24;6.70;99.90
37974;DHT22;23796;51.458;7.000;2023-02-01T01:18:50;6.70;99.90
37974;DHT22;23796;51.458;7.000;2023-02-01T01:21:16;6.80;99.90
37974;DHT22;23796;51.458;7.000;2023-02-01T01:23:43;6.80;99.90
37974;DHT22;23796;51.458;7.000;2023-02-01T01:26:14;6.90;99.90
37974;DHT22;23796;51.458;7.000;2023-02-01T01:28:42;6.80;99.90
37974;DHT22;23796;51.458;7.000;2023-02-01T01:31:11;6.80;99.90
37974;DHT22;23796;51.458;7.000;2023-02-01T01:33:39;6.80;99.90
37974;DHT22;23796;51.458;7.000;2023-02-01T01:36:09;6.80;99.90
37974;DHT22;23796;51.458;7.000;2023-02-01T01:38:38;6.80;99.90
37974;DHT22;23796;51.458;7.000;2023-02-01T01:41:07;6.70;99.90
37974;DHT22;23796;51.458;7.000;2023-02-01T01:46:33;6.70;99.90
37974;DHT22;23796;51.458;7.000;2023-02-01T01:49:12;6.60;99.90
37974;DHT22;23796;51.458;7.000;2023-02-01T01:51:52;6.70;99.90
37974;DHT22;23796;51.458;7.000;2023-02-01T01:56:50;6.60;99.90
37974;DHT22;23796;51.458;7.000;2023-02-01T01:59:17;6.50;99.90
37974;DHT22;23796;51.458;7.000;2023-02-01T02:01:43;6.50;99.90
37974;DHT22;23796;51.458;7.000;2023-02-01T02:04:11;6.60;99.90
37974;DHT22;23796;51.458;7.000;2023-02-01T02:06:50;6.50;99.90
37974;DHT22;23796;51.458;7.000;2023-02-01T02:09:19;6.50;99.90
37974;DHT22;23796;51.458;7.000;2023-02-01T02:11:47;6.40;99.90
37974;DHT22;23796;51.458;7.000;2023-02-01T02:14:16;6.40;99.90
37974;DHT22;23796;51.458;7.000;2023-02-01T02:48:17;6.30;99.90
37974;DHT22;23796;51.458;7.000;2023-02-01T02:51:09;6.30;99.90
37974;DHT22;23796;51.458;7.000;2023-02-01T02:54:08;6.20;99.90
37974;DHT22;23796;51.458;7.000;2023-02-01T02:56:54;6.20;99.90
37974;DHT22;23796;51.458;7.000;2023-02-01T02:59:41;6.10;99.90
37974;DHT22;23796;51.458;7.000;2023-02-01T03:02:27;6.10;99.90
37974;DHT22;23796;51.458;7.000;2023-02-01T03:05:12;5.90;99.90
37974;DHT22;23796;51.458;7.000;2023-02-01T03:12:48;5.80;99.90
37974;DHT22;23796;51.458;7.000;2023-02-01T03:18:06;5.90;99.90
37974;DHT22;23796;51.458;7.000;2023-02-01T03:20:36;6.00;99.90
37974;DHT22;23796;51.458;7.000;2023-02-01T03:23:04;6.00;99.90
37974;DHT22;23796;51.458;7.000;2023-02-01T03:25:34;6.10;99.90
37974;DHT22;23796;51.458;7.000;2023-02-01T03:28:04;6.20;99.90
37974;DHT22;23796;51.458;7.000;2023-02-01T03:30:36;6.20;99.90
37974;DHT22;23796;51.458;7.000;2023-02-01T03:33:05;6.20;99.90
37974;DHT22;23796;51.458;7.000;2023-02-01T03:38:39;6.20;99.90
37974;DHT22;23796;51.458;7.000;2023-02-01T03:44:13;6.20;99.90
37974;DHT22;23796;51.458;7.000;2023-02-01T03:49:20;6.20;99.90
37974;DHT22;23796;51.458;7.000;2023-02-01T03:51:50;6.10;99.90
37974;DHT22;23796;51.458;7.000;2023-02-01T03:54:17;6.10;99.90
37974;DHT22;23796;51.458;7.000;2023-02-01T03:56:47;6.10;99.90
37974;DHT22;23796;51.458;7.000;2023-02-01T03:59:14;6.10;99.90
37974;DHT22;23796;51.458;7.000;2023-02-01T04:01:40;6.10;99.90
37974;DHT22;23796;51.458;7.000;2023-02-01T04:04:06;6.10;99.90
37974;DHT22;23796;51.458;7.000;2023-02-01T04:06:32;6.00;99.90
37974;DHT22;23796;51.458;7.000;2023-02-01T04:08:57;6.10;99.90
37974;DHT22;23796;51.458;7.000;2023-02-01T04:11:25;6.10;99.90
37974;DHT22;23796;51.458;7.000;2023-02-01T04:13:53;6.20;99.90
37974;DHT22;23796;51.458;7.000;2023-02-01T04:16:18;6.20;99.90
37974;DHT22;23796;51.458;7.000;2023-02-01T04:18:44;6.20;99.90
37974;DHT22;23796;51.458;7.000;2023-02-01T04:21:12;6.20;99.90
37974;DHT22;23796;51.458;7.000;2023-02-01T04:23:37;6.10;99.90
37974;DHT22;23796;51.458;7.000;2023-02-01T04:26:04;6.10;99.90
37974;DHT22;23796;51.458;7.000;2023-02-01T04:28:30;6.10;99.90
37974;DHT22;23796;51.458;7.000;2023-02-01T04:30:56;5.90;99.90
37974;DHT22;23796;51.458;7.000;2023-02-01T04:33:24;5.90;99.90
37974;DHT22;23796;51.458;7.000;2023-02-01T04:35:49;5.90;99.90
37974;DHT22;23796;51.458;7.000;2023-02-01T04:38:17;5.80;99.90
37974;DHT22;23796;51.458;7.000;2023-02-01T04:40:45;5.80;99.90
37974;DHT22;23796;51.458;7.000;2023-02-01T04:43:13;5.80;99.90
37974;DHT22;23796;51.458;7.000;2023-02-01T04:45:39;5.90;99.90
37974;DHT22;23796;51.458;7.000;2023-02-01T04:48:05;6.00;99.90
37974;DHT22;23796;51.458;7.000;2023-02-01T04:50:33;6.00;99.90
37974;DHT22;23796;51.458;7.000;2023-02-01T04:52:58;6.00;99.90
37974;DHT22;23796;51.458;7.000;2023-02-01T04:55:24;6.00;99.90
37974;DHT22;23796;51.458;7.000;2023-02-01T04:57:50;6.00;99.90
37974;DHT22;23796;51.458;7.000;2023-02-01T05:00:20;6.00;99.90
37974;DHT22;23796;51.458;7.000;2023-02-01T05:02:46;6.00;99.90
37974;DHT22;23796;51.458;7.000;2023-02-01T05:05:11;6.00;99.90
37974;DHT22;23796;51.458;7.000;2023-02-01T05:07:37;5.90;99.90
37974;DHT22;23796;51.458;7.000;2023-02-01T05:10:02;5.80;99.90
37974;DHT22;23796;51.458;7.000;2023-02-01T05:12:29;5.80;99.90
37974;DHT22;23796;51.458;7.000;2023-02-01T05:15:13;5.70;99.90
37974;DHT22;23796;51.458;7.000;2023-02-01T05:17:40;5.70;99.90
37974;DHT22;23796;51.458;7.000;2023-02-01T05:20:07;5.60;99.90
37974;DHT22;23796;51.458;7.000;2023-02-01T05:22:33;5.60;99.90
37974;DHT22;23796;51.458;7.000;2023-02-01T05:25:01;5.70;99.90
37974;DHT22;23796;51.458;7.000;2023-02-01T05:27:29;5.70;99.90
37974;DHT22;23796;51.458;7.000;2023-02-01T05:29:55;5.70;99.90
37974;DHT22;23796;51.458;7.000;2023-02-01T05:32:21;5.70;99.90
37974;DHT22;23796;51.458;7.000;2023-02-01T05:34:49;5.70;99.90
37974;DHT22;23796;51.458;7.000;2023-02-01T05:37:19;5.70;99.90
37974;DHT22;23796;51.458;7.000;2023-02-01T05:39:47;5.70;99.90
37974;DHT22;23796;51.458;7.000;2023-02-01T05:42:12;5.60;99.90
37974;DHT22;23796;51.458;7.000;2023-02-01T05:44:38;5.60;99.90
37974;DHT22;23796;51.458;7.000;2023-02-01T05:47:04;5.60;99.90
37974;DHT22;23796;51.458;7.000;2023-02-01T05:49:29;5.60;99.90
37974;DHT22;23796;51.458;7.000;2023-02-01T05:51:55;5.50;99.90
37974;DHT22;23796;51.458;7.000;2023-02-01T05:54:21;5.40;99.90
37974;DHT22;23796;51.458;7.000;2023-02-01T05:56:48;5.50;99.90
37974;DHT22;23796;51.458;7.000;2023-02-01T05:59:14;5.40;99.90
37974;DHT22;23796;51.458;7.000;2023-02-01T06:01:39;5.40;99.90
37974;DHT22;23796;51.458;7.000;2023-02-01T06:04:08;5.40;99.90
37974;DHT22;23796;51.458;7.000;2023-02-01T06:06:34;5.50;99.90
37974;DHT22;23796;51.458;7.000;2023-02-01T06:09:00;5.60;99.90
37974;DHT22;23796;51.458;7.000;2023-02-01T06:11:26;5.70;99.90
37974;DHT22;23796;51.458;7.000;2023-02-01T06:13:55;5.70;99.90
37974;DHT22;23796;51.458;7.000;2023-02-01T06:16:21;5.80;99.90
37974;DHT22;23796;51.458;7.000;2023-02-01T06:18:48;5.90;99.90
37974;DHT22;23796;51.458;7.000;2023-02-01T06:21:17;5.90;99.90
37974;DHT22;23796;51.458;7.000;2023-02-01T06:23:53;5.90;99.90
37974;DHT22;23796;51.458;7.000;2023-02-01T06:26:24;6.00;99.90
37974;DHT22;23796;51.458;7.000;2023-02-01T06:28:49;6.00;99.90
37974;DHT22;23796;51.458;7.000;2023-02-01T06:31:20;6.00;99.90
37974;DHT22;23796;51.458;7.000;2023-02-01T06:33:45;6.00;99.90
37974;DHT22;23796;51.458;7.000;2023-02-01T06:36:16;6.10;99.90
37974;DHT22;23796;51.458;7.000;2023-02-01T06:38:44;6.10;99.90
37974;DHT22;23796;51.458;7.000;2023-02-01T06:41:10;6.10;99.90
37974;DHT22;23796;51.458;7.000;2023-02-01T06:43:36;6.10;99.90
37974;DHT22;23796;51.458;7.000;2023-02-01T06:46:07;6.10;99.90
37974;DHT22;23796;51.458;7.000;2023-02-01T06:48:34;6.10;99.90
37974;DHT22;23796;51.458;7.000;2023-02-01T06:50:59;6.20;99.90
37974;DHT22;23796;51.458;7.000;2023-02-01T06:53:27;6.20;99.90
37974;DHT22;23796;51.458;7.000;2023-02-01T06:56:01;6.10;99.90
37974;DHT22;23796;51.458;7.000;2023-02-01T06:58:31;6.10;99.90
37974;DHT22;23796;51.458;7.000;2023-02-01T07:00:58;6.10;99.90
37974;DHT22;23796;51.458;7.000;2023-02-01T07:03:23;6.20;99.90
37974;DHT22;23796;51.458;7.000;2023-02-01T07:05:55;6.10;99.90
37974;DHT22;23796;51.458;7.000;2023-02-01T07:08:21;6.10;99.90
37974;DHT22;23796;51.458;7.000;2023-02-01T07:10:49;6.20;99.90
37974;DHT22;23796;51.458;7.000;2023-02-01T07:13:17;6.20;99.90
37974;DHT22;23796;51.458;7.000;2023-02-01T07:15:45;6.20;99.90
37974;DHT22;23796;51.458;7.000;2023-02-01T07:18:15;6.20;99.90
37974;DHT22;23796;51.458;7.000;2023-02-01T07:20:41;6.20;99.90
37974;DHT22;23796;51.458;7.000;2023-02-01T07:23:09;6.30;99.90
37974;DHT22;23796;51.458;7.000;2023-02-01T07:25:35;6.30;99.90
37974;DHT22;23796;51.458;7.000;2023-02-01T07:28:03;6.40;99.90
37974;DHT22;23796;51.458;7.000;2023-02-01T07:30:31;6.30;99.90
37974;DHT22;23796;51.458;7.000;2023-02-01T07:32:56;6.30;99.90
37974;DHT22;23796;51.458;7.000;2023-02-01T07:35:27;6.30;99.90
37974;DHT22;23796;51.458;7.000;2023-02-01T07:37:52;6.30;99.90
37974;DHT22;23796;51.458;7.000;2023-02-01T07:40:18;6.30;99.90
37974;DHT22;23796;51.458;7.000;2023-02-01T07:42:44;6.30;99.90
37974;DHT22;23796;51.458;7.000;2023-02-01T07:45:09;6.30;99.90
37974;DHT22;23796;51.458;7.000;2023-02-01T07:47:37;6.30;99.90
37974;DHT22;23796;51.458;7.000;2023-02-01T07:50:03;6.30;99.90
37974;DHT22;23796;51.458;7.000;2023-02-01T07:52:29;6.30;99.90
37974;DHT22;23796;51.458;7.000;2023-02-01T07:54:54;6.40;99.90
37974;DHT22;23796;51.458;7.000;2023-02-01T07:57:20;6.40;99.90
37974;DHT22;23796;51.458;7.000;2023-02-01T07:59:46;6.40;99.90
37974;DHT22;23796;51.458;7.000;2023-02-01T08:02:31;6.40;99.90
37974;DHT22;23796;51.458;7.000;2023-02-01T08:04:59;6.30;99.90
37974;DHT22;23796;51.458;7.000;2023-02-01T08:07:27;6.30;99.90
37974;DHT22;23796;51.458;7.000;2023-02-01T08:09:57;6.40;99.90
37974;DHT22;23796;51.458;7.000;2023-02-01T08:12:25;6.40;99.90
37974;DHT22;23796;51.458;7.000;2023-02-01T08:14:52;6.40;99.90
37974;DHT22;23796;51.458;7.000;2023-02-01T08:17:19;6.50;99.90
37974;DHT22;23796;51.458;7.000;2023-02-01T08:19:44;6.50;99.90
37974;DHT22;23796;51.458;7.000;2023-02-01T08:22:13;6.50;99.90
37974;DHT22;23796;51.458;7.000;2023-02-01T08:24:43;6.50;99.90
37974;DHT22;23796;51.458;7.000;2023-02-01T08:27:09;6.50;99.90
37974;DHT22;23796;51.458;7.000;2023-02-01T08:29:37;6.40;99.90
37974;DHT22;23796;51.458;7.000;2023-02-01T08:32:06;6.40;99.90
37974;DHT22;23796;51.458;7.000;2023-02-01T08:34:35;6.40;99.90
37974;DHT22;23796;51.458;7.000;2023-02-01T08:37:00;6.40;99.90
37974;DHT22;23796;51.458;7.000;2023-02-01T08:39:26;6.50;99.90
37974;DHT22;23796;51.458;7.000;2023-02-01T08:41:52;6.50;99.90
37974;DHT22;23796;51.458;7.000;2023-02-01T08:44:36;6.60;99.90
37974;DHT22;23796;51.458;7.000;2023-02-01T08:47:02;6.50;99.90
37974;DHT22;23796;51.458;7.000;2023-02-01T08:49:31;6.60;99.90
37974;DHT22;23796;51.458;7.000;2023-02-01T08:51:59;6.60;99.90
37974;DHT22;23796;51.458;7.000;2023-02-01T08:54:26;6.70;99.90
37974;DHT22;23796;51.458;7.000;2023-02-01T08:56:52;6.70;99.90
37974;DHT22;23796;51.458;7.000;2023-02-01T08:59:19;6.60;99.90
37974;DHT22;23796;51.458;7.000;2023-02-01T09:01:45;6.70;99.90
37974;DHT22;23796;51.458;7.000;2023-02-01T09:04:13;6.70;99.90
37974;DHT22;23796;51.458;7.000;2023-02-01T09:06:40;6.80;99.90
37974;DHT22;23796;51.458;7.000;2023-02-01T09:09:09;6.70;99.90
37974;DHT22;23796;51.458;7.000;2023-02-01T09:11:34;6.70;99.90
37974;DHT22;23796;51.458;7.000;2023-02-01T09:14:02;6.60;99.90
37974;DHT22;23796;51.458;7.000;2023-02-01T09:16:28;6.60;99.90
37974;DHT22;23796;51.458;7.000;2023-02-01T09:18:54;6.70;99.90
37974;DHT22;23796;51.458;7.000;2023-02-01T09:21:20;6.80;99.90
37974;DHT22;23796;51.458;7.000;2023-02-01T09:23:48;6.90;99.90
37974;DHT22;23796;51.458;7.000;2023-02-01T09:26:15;6.80;99.90
37974;DHT22;23796;51.458;7.000;2023-02-01T09:28:41;6.90;99.90
37974;DHT22;23796;51.458;7.000;2023-02-01T09:31:06;7.00;99.90
37974;DHT22;23796;51.458;7.000;2023-02-01T09:33:32;7.10;99.90
37974;DHT22;23796;51.458;7.000;2023-02-01T09:36:03;7.00;99.90
37974;DHT22;23796;51.458;7.000;2023-02-01T09:38:30;7.10;99.90
37974;DHT22;23796;51.458;7.000;2023-02-01T09:40:59;7.20;99.90
37974;DHT22;23796;51.458;7.000;2023-02-01T09:46:31;6.90;99.90
37974;DHT22;23796;51.458;7.000;2023-02-01T09:48:52;6.90;99.90
37974;DHT22;23796;51.458;7.000;2023-02-01T09:51:26;6.90;99.90
37974;DHT22;23796;51.458;7.000;2023-02-01T09:56:46;7.00;99.90
37974;DHT22;23796;51.458;7.000;2023-02-01T09:59:41;7.20;99.90
37974;DHT22;23796;51.458;7.000;2023-02-01T10:02:21;7.40;99.90
37974;DHT22;23796;51.458;7.000;2023-02-01T10:04:52;7.30;99.90
37974;DHT22;23796;51.458;7.000;2023-02-01T10:13:12;7.40;99.90
37974;DHT22;23796;51.458;7.000;2023-02-01T10:21:56;7.40;99.90
37974;DHT22;23796;51.458;7.000;2023-02-01T10:27:19;7.50;99.90
37974;DHT22;23796;51.458;7.000;2023-02-01T10:29:58;7.70;99.90
37974;DHT22;23796;51.458;7.000;2023-02-01T10:32:32;7.90;99.90
37974;DHT22;23796;51.458;7.000;2023-02-01T10:35:04;7.80;99.90
37974;DHT22;23796;51.458;7.000;2023-02-01T10:37:36;7.60;99.90
37974;DHT22;23796;51.458;7.000;2023-02-01T10:40:30;7.60;99.90
37974;DHT22;23796;51.458;7.000;2023-02-01T10:43:04;7.50;99.90
37974;DHT22;23796;51.458;7.000;2023-02-01T10:45:30;7.50;99.90
37974;DHT22;23796;51.458;7.000;2023-02-01T10:47:59;7.50;99.90
37974;DHT22;23796;51.458;7.000;2023-02-01T10:53:18;7.30;99.90
37974;DHT22;23796;51.458;7.000;2023-02-01T10:58:26;7.50;99.90
37974;DHT22;23796;51.458;7.000;2023-02-01T11:00:56;7.50;99.90
37974;DHT22;23796;51.458;7.000;2023-02-01T11:03:52;7.50;99.90
37974;DHT22;23796;51.458;7.000;2023-02-01T11:08:50;7.50;99.90
37974;DHT22;23796;51.458;7.000;2023-02-01T11:11:16;7.50;99.90
37974;DHT22;23796;51.458;7.000;2023-02-01T11:14:01;7.60;99.90
37974;DHT22;23796;51.458;7.000;2023-02-01T11:16:38;7.70;99.90
37974;DHT22;23796;51.458;7.000;2023-02-01T11:19:04;7.90;99.90
37974;DHT22;23796;51.458;7.000;2023-02-01T11:21:31;7.90;99.90
37974;DHT22;23796;51.458;7.000;2023-02-01T11:24:02;8.00;99.90
37974;DHT22;23796;51.458;7.000;2023-02-01T11:26:31;8.00;99.90
37974;DHT22;23796;51.458;7.000;2023-02-01T11:29:04;7.70;99.90
37974;DHT22;23796;51.458;7.000;2023-02-01T11:31:39;7.80;99.90
37974;DHT22;23796;51.458;7.000;2023-02-01T11:34:16;7.70;99.90
37974;DHT22;23796;51.458;7.000;2023-02-01T11:36:45;7.80;99.90
37974;DHT22;23796;51.458;7.000;2023-02-01T11:41:54;7.90;99.90
37974;DHT22;23796;51.458;7.000;2023-02-01T11:44:44;8.00;99.90
37974;DHT22;23796;51.458;7.000;2023-02-01T11:49:47;8.00;99.90
37974;DHT22;23796;51.458;7.000;2023-02-01T11:52:18;7.70;99.90
37974;DHT22;23796;51.458;7.000;2023-02-01T11:55:01;7.60;99.90
37974;DHT22;23796;51.458;7.000;2023-02-01T11:57:52;7.60;99.90
37974;DHT22;23796;51.458;7.000;2023-02-01T12:06:46;7.40;99.90
37974;DHT22;23796;51.458;7.000;2023-02-01T12:09:31;7.30;99.90
37974;DHT22;23796;51.458;7.000;2023-02-01T12:22:55;7.30;99.90
37974;DHT22;23796;51.458;7.000;2023-02-01T12:39:01;7.50;99.90
37974;DHT22;23796;51.458;7.000;2023-02-01T12:46:54;7.70;99.90
37974;DHT22;23796;51.458;7.000;2023-02-01T12:49:28;7.70;99.90
37974;DHT22;23796;51.458;7.000;2023-02-01T12:52:00;7.70;99.90
37974;DHT22;23796;51.458;7.000;2023-02-01T12:54:32;7.60;99.90
37974;DHT22;23796;51.458;7.000;2023-02-01T12:57:06;7.70;99.90
37974;DHT22;23796;51.458;7.000;2023-02-01T12:59:59;7.70;99.90
37974;DHT22;23796;51.458;7.000;2023-02-01T13:02:40;7.70;99.90
37974;DHT22;23796;51.458;7.000;2023-02-01T13:05:17;7.60;99.90
37974;DHT22;23796;51.458;7.000;2023-02-01T13:07:51;7.60;99.90
37974;DHT22;23796;51.458;7.000;2023-02-01T13:13:22;7.50;99.90
37974;DHT22;23796;51.458;7.000;2023-02-01T13:16:01;7.50;99.90
37974;DHT22;23796;51.458;7.000;2023-02-01T13:18:35;7.40;99.90
37974;DHT22;23796;51.458;7.000;2023-02-01T13:21:36;7.40;99.90
37974;DHT22;23796;51.458;7.000;2023-02-01T13:24:30;7.40;99.90
37974;DHT22;23796;51.458;7.000;2023-02-01T13:26:57;7.40;99.90
37974;DHT22;23796;51.458;7.000;2023-02-01T13:29:24;7.50;99.90
37974;DHT22;23796;51.458;7.000;2023-02-01T13:31:57;7.50;99.90
37974;DHT22;23796;51.458;7.000;2023-02-01T13:34:54;7.60;99.90
37974;DHT22;23796;51.458;7.000;2023-02-01T13:37:32;7.60;99.90
37974;DHT22;23796;51.458;7.000;2023-02-01T13:43:13;7.60;99.90
37974;DHT22;23796;51.458;7.000;2023-02-01T13:45:57;7.70;99.90
37974;DHT22;23796;51.458;7.000;2023-02-01T13:51:44;7.80;99.90
37974;DHT22;23796;51.458;7.000;2023-02-01T13:54:33;7.90;99.90
37974;DHT22;23796;51.458;7.000;2023-02-01T13:57:01;7.90;99.90
37974;DHT22;23796;51.458;7.000;2023-02-01T14:05:53;7.80;99.90
37974;DHT22;23796;51.458;7.000;2023-02-01T14:08:36;7.80;99.90
37974;DHT22;23796;51.458;7.000;2023-02-01T14:11:02;7.80;99.90
37974;DHT22;23796;51.458;7.000;2023-02-01T14:13:36;7.80;99.90
37974;DHT22;23796;51.458;7.000;2023-02-01T14:21:30;7.90;99.90
37974;DHT22;23796;51.458;7.000;2023-02-01T14:26:27;7.70;99.90
37974;DHT22;23796;51.458;7.000;2023-02-01T14:32:00;7.70;99.90
37974;DHT22;23796;51.458;7.000;2023-02-01T14:42:53;7.90;99.90
37974;DHT22;23796;51.458;7.000;2023-02-01T14:55:43;8.00;99.90
37974;DHT22;23796;51.458;7.000;2023-02-01T15:00:56;7.90;99.90
37974;DHT22;23796;51.458;7.000;2023-02-01T15:14:25;8.00;99.90
37974;DHT22;23796;51.458;7.000;2023-02-01T15:16:50;8.00;99.90
37974;DHT22;23796;51.458;7.000;2023-02-01T15:19:21;8.00;99.90
37974;DHT22;23796;51.458;7.000;2023-02-01T15:21:49;8.00;99.90
37974;DHT22;23796;51.458;7.000;2023-02-01T15:24:35;8.00;99.90
37974;DHT22;23796;51.458;7.000;2023-02-01T15:27:05;8.00;99.90
37974;DHT22;23796;51.458;7.000;2023-02-01T15:29:31;8.00;99.90
37974;DHT22;23796;51.458;7.000;2023-02-01T15:31:59;8.10;99.90
37974;DHT22;23796;51.458;7.000;2023-02-01T15:34:47;8.10;99.90
37974;DHT22;23796;51.458;7.000;2023-02-01T15:37:15;8.10;99.90
37974;DHT22;23796;51.458;7.000;2023-02-01T15:42:37;8.10;99.90
37974;DHT22;23796;51.458;7.000;2023-02-01T15:45:20;8.10;99.90
37974;DHT22;23796;51.458;7.000;2023-02-01T15:47:50;8.10;99.90
37974;DHT22;23796;51.458;7.000;2023-02-01T15:50:19;8.10;99.90
37974;DHT22;23796;51.458;7.000;2023-02-01T15:52:48;8.10;99.90
37974;DHT22;23796;51.458;7.000;2023-02-01T15:57:49;8.10;99.90
37974;DHT22;23796;51.458;7.000;2023-02-01T16:00:30;8.10;99.90
37974;DHT22;23796;51.458;7.000;2023-02-01T16:03:05;8.00;99.90
37974;DHT22;23796;51.458;7.000;2023-02-01T16:05:42;8.00;99.90
37974;DHT22;23796;51.458;7.000;2023-02-01T16:10:45;8.00;99.90
37974;DHT22;23796;51.458;7.000;2023-02-01T16:13:17;8.00;99.90
37974;DHT22;23796;51.458;7.000;2023-02-01T16:15:46;8.10;99.90
37974;DHT22;23796;51.458;7.000;2023-02-01T16:18:15;8.10;99.90
37974;DHT22;23796;51.458;7.000;2023-02-01T16:20:42;8.10;99.90
37974;DHT22;23796;51.458;7.000;2023-02-01T16:23:08;8.00;99.90
37974;DHT22;23796;51.458;7.000;2023-02-01T16:25:35;8.10;99.90
37974;DHT22;23796;51.458;7.000;2023-02-01T16:28:03;8.00;99.90
37974;DHT22;23796;51.458;7.000;2023-02-01T16:30:30;8.00;99.90
37974;DHT22;23796;51.458;7.000;2023-02-01T16:32:58;7.80;99.90
37974;DHT22;23796;51.458;7.000;2023-02-01T16:37:55;7.50;99.90
37974;DHT22;23796;51.458;7.000;2023-02-01T16:40:21;7.50;99.90
37974;DHT22;23796;51.458;7.000;2023-02-01T16:42:50;7.40;99.90
37974;DHT22;23796;51.458;7.000;2023-02-01T16:45:16;7.40;99.90
37974;DHT22;23796;51.458;7.000;2023-02-01T16:47:47;7.40;99.90
37974;DHT22;23796;51.458;7.000;2023-02-01T16:50:18;7.50;99.90
37974;DHT22;23796;51.458;7.000;2023-02-01T16:52:45;7.50;99.90
37974;DHT22;23796;51.458;7.000;2023-02-01T16:55:15;7.60;99.90
37974;DHT22;23796;51.458;7.000;2023-02-01T16:57:44;7.60;99.90
37974;DHT22;23796;51.458;7.000;2023-02-01T17:00:13;7.60;99.90
37974;DHT22;23796;51.458;7.000;2023-02-01T17:02:41;7.50;99.90
37974;DHT22;23796;51.458;7.000;2023-02-01T17:05:08;7.50;99.90
37974;DHT22;23796;51.458;7.000;2023-02-01T17:07:34;7.50;99.90
37974;DHT22;23796;51.458;7.000;2023-02-01T17:10:02;7.50;99.90
37974;DHT22;23796;51.458;7.000;2023-02-01T17:12:31;7.50;99.90
37974;DHT22;23796;51.458;7.000;2023-02-01T17:14:58;7.60;99.90
37974;DHT22;23796;51.458;7.000;2023-02-01T17:17:36;7.60;99.90
37974;DHT22;23796;51.458;7.000;2023-02-01T17:20:03;7.60;99.90
37974;DHT22;23796;51.458;7.000;2023-02-01T17:22:31;7.60;99.90
37974;DHT22;23796;51.458;7.000;2023-02-01T17:24:57;7.60;99.90
37974;DHT22;23796;51.458;7.000;2023-02-01T17:27:25;7.70;99.90
37974;DHT22;23796;51.458;7.000;2023-02-01T17:29:50;7.70;99.90
37974;DHT22;23796;51.458;7.000;2023-02-01T17:32:21;7.70;99.90
37974;DHT22;23796;51.458;7.000;2023-02-01T17:34:47;7.70;99.90
37974;DHT22;23796;51.458;7.000;2023-02-01T17:39:52;7.70;99.90
37974;DHT22;23796;51.458;7.000;2023-02-01T17:42:24;7.70;99.90
37974;DHT22;23796;51.458;7.000;2023-02-01T17:45:02;7.70;99.90
37974;DHT22;23796;51.458;7.000;2023-02-01T17:47:36;7.80;99.90
37974;DHT22;23796;51.458;7.000;2023-02-01T17:50:03;7.80;99.90
37974;DHT22;23796;51.458;7.000;2023-02-01T17:52:29;7.80;99.90
37974;DHT22;23796;51.458;7.000;2023-02-01T17:54:54;7.70;99.90
37974;DHT22;23796;51.458;7.000;2023-02-01T17:57:20;7.70;99.90
37974;DHT22;23796;51.458;7.000;2023-02-01T17:59:46;7.80;99.90
37974;DHT22;23796;51.458;7.000;2023-02-01T18:02:21;7.80;99.90
37974;DHT22;23796;51.458;7.000;2023-02-01T18:04:50;7.80;99.90
37974;DHT22;23796;51.458;7.000;2023-02-01T18:07:26;7.80;99.90
37974;DHT22;23796;51.458;7.000;2023-02-01T18:09:51;7.80;99.90
37974;DHT22;23796;51.458;7.000;2023-02-01T18:12:21;7.80;99.90
37974;DHT22;23796;51.458;7.000;2023-02-01T18:14:49;7.80;99.90
37974;DHT22;23796;51.458;7.000;2023-02-01T18:17:17;7.80;99.90
37974;DHT22;23796;51.458;7.000;2023-02-01T18:19:45;7.80;99.90
37974;DHT22;23796;51.458;7.000;2023-02-01T18:22:20;7.70;99.90
37974;DHT22;23796;51.458;7.000;2023-02-01T18:24:49;7.80;99.90
37974;DHT22;23796;51.458;7.000;2023-02-01T18:27:15;7.80;99.90
37974;DHT22;23796;51.458;7.000;2023-02-01T18:29:45;7.80;99.90
37974;DHT22;23796;51.458;7.000;2023-02-01T18:32:11;7.90;99.90
37974;DHT22;23796;51.458;7.000;2023-02-01T18:34:36;7.80;99.90
37974;DHT22;23796;51.458;7.000;2023-02-01T18:37:02;7.80;99.90
37974;DHT22;23796;51.458;7.000;2023-02-01T18:39:27;7.90;99.90
37974;DHT22;23796;51.458;7.000;2023-02-01T18:41:53;7.90;99.90
37974;DHT22;23796;51.458;7.000;2023-02-01T18:44:19;8.00;99.90
37974;DHT22;23796;51.458;7.000;2023-02-01T18:46:44;8.00;99.90
37974;DHT22;23796;51.458;7.000;2023-02-01T18:49:10;8.00;99.90
37974;DHT22;23796;51.458;7.000;2023-02-01T18:51:44;7.80;99.90
37974;DHT22;23796;51.458;7.000;2023-02-01T18:54:11;7.70;99.90
37974;DHT22;23796;51.458;7.000;2023-02-01T18:56:36;7.80;99.90
37974;DHT22;23796;51.458;7.000;2023-02-01T18:59:02;7.90;99.90
37974;DHT22;23796;51.458;7.000;2023-02-01T19:01:28;7.90;99.90
37974;DHT22;23796;51.458;7.000;2023-02-01T19:03:53;7.90;99.90
37974;DHT22;23796;51.458;7.000;2023-02-01T19:06:19;7.90;99.90
37974;DHT22;23796;51.458;7.000;2023-02-01T19:08:45;7.90;99.90
37974;DHT22;23796;51.458;7.000;2023-02-01T19:11:17;7.90;99.90
37974;DHT22;23796;51.458;7.000;2023-02-01T19:13:45;7.90;99.90
37974;DHT22;23796;51.458;7.000;2023-02-01T19:16:14;8.00;99.90